Time;durP1;ratioP1;P1;durP2;ratioP2;P2;SDS_P1;SDS_P2;PMS_P1;PMS_P2;Temp;Humidity;BMP_temperature;BMP_pressure;BME280_temperature;BME280_humidity;BME280_pressure;Samples;Min_cycle;Max_cycle;Signal;HPM_P1;HPM_P2
2022/08/19 00:01:58;;;;;;;7.97;3.50;;;;;;;24.55;55.52;98585.41;5030595;28;20266;-81
2022/08/19 00:04:35;;;;;;;6.57;3.08;;;;;;;24.64;55.22;98579.84;5030204;28;20251;-81
2022/08/19 00:07:04;;;;;;;6.13;3.42;;;;;;;24.66;55.28;98581.13;5029485;28;20237;-81
2022/08/19 00:09:31;;;;;;;6.63;3.00;;;;;;;24.90;54.09;98596.88;5033479;28;20258;-81
2022/08/19 00:11:58;;;;;;;8.93;3.40;;;;;;;24.79;54.15;98582.75;5027666;28;20839;-81
2022/08/19 00:14:26;;;;;;;7.57;3.10;;;;;;;24.73;54.53;98588.81;5059805;28;20694;-81
2022/08/19 00:16:54;;;;;;;7.47;2.83;;;;;;;24.70;54.55;98583.97;5050412;28;20798;-81
2022/08/19 00:19:22;;;;;;;9.18;3.53;;;;;;;24.76;54.96;98590.84;5046295;28;20239;-81
2022/08/19 00:21:49;;;;;;;7.35;3.15;;;;;;;24.63;56.02;98589.22;5055365;28;20229;-80
2022/08/19 00:24:16;;;;;;;7.32;3.25;;;;;;;24.66;55.76;98581.13;5047632;28;20954;-80
2022/08/19 00:26:45;;;;;;;6.70;3.35;;;;;;;24.45;56.37;98574.91;5029345;28;20709;-81
2022/08/19 00:29:14;;;;;;;6.45;3.30;;;;;;;24.43;56.80;98569.75;5027228;28;20264;-81
2022/08/19 00:31:42;;;;;;;11.80;3.63;;;;;;;24.32;56.85;98554.84;5030543;28;20325;-82
2022/08/19 00:34:11;;;;;;;8.43;3.40;;;;;;;24.29;57.45;98557.47;5028960;28;20312;-82
2022/08/19 00:36:39;;;;;;;6.97;3.10;;;;;;;24.16;58.34;98553.06;5028577;28;20241;-84
2022/08/19 00:39:06;;;;;;;7.22;2.90;;;;;;;24.16;57.92;98551.16;5024159;28;20236;-83
2022/08/19 00:41:33;;;;;;;10.40;3.33;;;;;;;24.12;59.06;98548.22;5031580;28;20238;-82
2022/08/19 00:44:10;;;;;;;5.68;2.80;;;;;;;23.98;59.98;98561.38;5031752;28;20654;-81
2022/08/19 00:46:39;;;;;;;7.03;2.90;;;;;;;23.91;60.16;98549.38;5036984;28;20228;-83
2022/08/19 00:49:12;;;;;;;5.78;3.08;;;;;;;23.82;61.42;98562.31;5016300;28;20319;-83
2022/08/19 00:51:38;;;;;;;8.02;3.35;;;;;;;23.73;62.51;98556.09;5025315;28;20244;-83
2022/08/19 00:54:05;;;;;;;6.10;3.17;;;;;;;23.61;64.72;98551.31;5031193;28;20320;-83
2022/08/19 00:56:32;;;;;;;8.88;3.40;;;;;;;23.54;63.68;98543.66;5025931;28;20717;-84
2022/08/19 00:58:59;;;;;;;7.50;2.90;;;;;;;23.49;63.60;98541.13;5031108;28;20237;-84
2022/08/19 01:01:26;;;;;;;8.48;3.30;;;;;;;23.42;64.65;98551.75;4998701;28;20323;-82
2022/08/19 01:03:53;;;;;;;6.03;3.00;;;;;;;23.34;65.67;98547.09;5027964;28;20237;-82
2022/08/19 01:06:25;;;;;;;9.07;3.30;;;;;;;23.30;67.27;98561.75;5012457;28;20241;-82
2022/08/19 01:08:53;;;;;;;10.55;3.40;;;;;;;23.25;66.42;98558.09;5020667;28;20222;-83
2022/08/19 01:11:19;;;;;;;8.27;3.58;;;;;;;23.23;65.54;98552.16;5029657;28;20252;-82
2022/08/19 01:13:46;;;;;;;6.30;3.35;;;;;;;23.23;64.95;98552.16;5047875;28;20320;-82
2022/08/19 01:16:17;;;;;;;8.10;2.95;;;;;;;23.23;64.61;98556.81;5050148;28;20252;-80
2022/08/19 01:18:43;;;;;;;8.50;3.30;;;;;;;23.21;64.51;98561.81;5053371;28;20256;-81
2022/08/19 01:21:36;;;;;;;8.60;2.88;;;;;;;23.22;64.71;98572.41;5041889;28;20709;-81
2022/08/19 01:24:04;;;;;;;8.73;2.90;;;;;;;23.19;64.97;98573.03;5047209;28;20244;-81
2022/08/19 01:26:30;;;;;;;6.28;3.03;;;;;;;23.17;65.57;98567.13;5050533;28;20240;-82
2022/08/19 01:29:00;;;;;;;10.93;3.00;;;;;;;23.17;66.34;98574.50;5044942;28;20222;-82
2022/08/19 01:31:30;;;;;;;8.80;3.08;;;;;;;23.11;66.50;98568.41;5047328;28;20289;-83
2022/08/19 01:34:00;;;;;;;9.63;3.15;;;;;;;23.05;67.76;98575.19;5041481;28;20230;-83
2022/08/19 01:36:29;;;;;;;7.05;2.92;;;;;;;23.03;68.68;98585.66;5033473;28;20287;-83
2022/08/19 01:38:57;;;;;;;8.07;2.90;;;;;;;22.96;69.80;98590.00;5041513;28;20338;-82
2022/08/19 01:41:24;;;;;;;7.50;3.17;;;;;;;22.89;71.99;98589.72;5041786;28;20754;-82
2022/08/19 01:43:52;;;;;;;7.05;2.72;;;;;;;22.77;74.38;98595.81;5040950;28;20251;-85
2022/08/19 01:46:39;;;;;;;5.93;2.95;;;;;;;22.60;75.76;98566.59;5041013;28;20579;-81
2022/08/19 01:49:06;;;;;;;5.63;3.00;;;;;;;22.53;75.08;98555.38;5040018;28;20225;-81
2022/08/19 01:51:33;;;;;;;10.07;3.47;;;;;;;22.48;75.35;98550.09;5047060;28;20249;-80
2022/08/19 01:54:07;;;;;;;5.68;2.90;;;;;;;22.45;77.80;98574.47;5044380;28;20233;-82
2022/08/19 01:56:34;;;;;;;5.00;3.05;;;;;;;22.38;79.00;98581.25;5025181;28;20326;-81
2022/08/19 01:59:06;;;;;;;8.48;3.60;;;;;;;22.26;82.39;98580.25;5047426;28;20231;-82
2022/08/19 02:01:34;;;;;;;9.05;3.33;;;;;;;22.23;82.21;98579.00;5041674;28;20227;-82
2022/08/19 02:04:02;;;;;;;6.38;2.80;;;;;;;22.24;80.11;98579.81;5044074;28;20298;-81
2022/08/19 02:06:28;;;;;;;6.30;3.10;;;;;;;22.23;77.79;98587.19;5045125;28;20235;-82
2022/08/19 02:08:55;;;;;;;7.72;3.00;;;;;;;22.26;76.51;98602.09;5046036;28;20325;-82
2022/08/19 02:11:31;;;;;;;7.60;3.00;;;;;;;22.25;76.48;98587.69;5044510;28;20226;-83
2022/08/19 02:13:58;;;;;;;8.50;3.03;;;;;;;22.25;76.68;98579.50;5049147;28;20297;-81
2022/08/19 02:16:25;;;;;;;8.50;3.25;;;;;;;22.25;76.04;98568.56;5041496;28;20622;-81
2022/08/19 02:18:51;;;;;;;6.20;3.42;;;;;;;22.25;75.73;98559.59;5049028;28;20228;-81
2022/08/19 02:21:20;;;;;;;6.80;3.20;;;;;;;22.21;76.11;98559.41;5040090;28;20296;-82
2022/08/19 02:23:47;;;;;;;7.80;3.00;;;;;;;22.19;76.32;98569.03;5051793;28;20264;-82
2022/08/19 02:26:14;;;;;;;8.35;3.13;;;;;;;22.22;76.65;98587.50;5041088;28;20244;-81
2022/08/19 02:28:41;;;;;;;7.88;3.55;;;;;;;22.20;77.58;98584.28;5039621;28;20262;-81
2022/08/19 02:31:10;;;;;;;10.38;3.08;;;;;;;22.17;78.29;98588.44;5045249;28;20225;-82
2022/08/19 02:33:37;;;;;;;8.68;3.08;;;;;;;22.12;78.60;98574.16;5040261;28;20323;-81
2022/08/19 02:36:05;;;;;;;7.57;3.25;;;;;;;22.07;79.23;98574.34;5043983;28;20244;-81
2022/08/19 02:38:33;;;;;;;7.07;2.90;;;;;;;22.05;80.01;98560.22;5040107;28;20248;-82
2022/08/19 02:41:02;;;;;;;7.70;3.15;;;;;;;21.99;82.19;98561.47;5036192;28;20320;-81
2022/08/19 02:43:30;;;;;;;8.15;3.38;;;;;;;21.94;82.95;98570.63;5040004;28;20264;-81
2022/08/19 02:46:00;;;;;;;8.00;3.00;;;;;;;21.90;83.79;98577.81;5045453;28;20679;-81
2022/08/19 02:48:27;;;;;;;5.30;2.78;;;;;;;21.79;84.63;98592.88;5041400;28;20225;-82
2022/08/19 02:50:56;;;;;;;5.70;3.08;;;;;;;21.77;85.01;98597.84;5043166;28;20239;-81
2022/08/19 02:53:24;;;;;;;8.23;3.72;;;;;;;21.77;86.71;98609.56;5039430;28;20313;-80
2022/08/19 02:55:51;;;;;;;5.40;3.38;;;;;;;21.85;85.90;98616.13;5045955;28;20237;-80
2022/08/19 02:58:19;;;;;;;10.75;3.35;;;;;;;21.36;90.68;98612.63;5047647;28;20247;-82
2022/08/19 03:00:49;;;;;;;5.17;3.27;;;;;;;21.27;90.86;98613.72;5045117;28;20228;-80
2022/08/19 03:03:17;;;;;;;9.30;3.70;;;;;;;20.96;96.19;98602.78;5048681;28;20252;-78
2022/08/19 03:05:43;;;;;;;8.15;3.00;;;;;;;20.78;99.10;98618.22;5047768;28;20236;-81
2022/08/19 03:08:21;;;;;;;5.13;3.00;;;;;;;20.68;100.00;98623.91;5045160;28;20239;-77
2022/08/19 03:10:48;;;;;;;6.13;3.22;;;;;;;20.63;100.00;98632.19;5050122;28;20239;-79
2022/08/19 03:13:17;;;;;;;4.90;3.13;;;;;;;20.60;100.00;98628.19;5050662;28;20716;-78
2022/08/19 03:15:46;;;;;;;7.97;3.60;;;;;;;20.55;100.00;98622.03;5040142;28;20234;-79
2022/08/19 03:18:14;;;;;;;7.17;3.07;;;;;;;20.56;100.00;98627.19;5039836;28;20235;-81
2022/08/19 03:20:49;;;;;;;8.38;3.45;;;;;;;20.53;100.00;98627.00;5046567;28;20233;-81
2022/08/19 03:23:16;;;;;;;7.27;3.40;;;;;;;20.52;100.00;98630.84;5057270;28;20243;-81
2022/08/19 03:25:46;;;;;;;8.50;3.30;;;;;;;20.58;100.00;98633.09;5052278;28;20316;-80
2022/08/19 03:28:28;;;;;;;6.13;3.03;;;;;;;20.52;100.00;98639.00;5021404;28;20262;-80
2022/08/19 03:31:01;;;;;;;11.00;3.60;;;;;;;20.52;100.00;98641.72;5056224;28;20316;-79
2022/08/19 03:33:30;;;;;;;6.10;3.58;;;;;;;20.74;98.72;98651.78;5037589;28;20251;-79
2022/08/19 03:36:08;;;;;;;7.23;3.30;;;;;;;20.64;100.00;98658.28;5026626;28;20768;-80
2022/08/19 03:38:37;;;;;;;6.47;3.07;;;;;;;20.59;100.00;98659.22;5021013;28;20230;-80
2022/08/19 03:41:08;;;;;;;7.90;3.20;;;;;;;20.77;100.00;98662.88;5025141;28;20778;-80
2022/08/19 03:43:37;;;;;;;5.23;3.00;;;;;;;20.77;100.00;98662.06;5022657;28;20237;-79
2022/08/19 03:46:09;;;;;;;6.60;3.40;;;;;;;20.76;100.00;98658.56;5025691;28;20322;-80
2022/08/19 03:48:38;;;;;;;8.27;3.43;;;;;;;20.70;100.00;98665.22;5022830;28;20237;-80
2022/08/19 03:51:05;;;;;;;6.28;2.92;;;;;;;20.64;100.00;98664.53;5033534;28;20233;-80
2022/08/19 03:53:33;;;;;;;7.57;3.10;;;;;;;20.59;100.00;98653.78;5038141;28;20229;-80
2022/08/19 03:56:00;;;;;;;5.03;2.97;;;;;;;20.59;100.00;98663.84;5015505;28;20242;-80
2022/08/19 03:58:29;;;;;;;8.33;3.23;;;;;;;20.57;100.00;98671.53;5036627;28;20331;-80
2022/08/19 04:00:56;;;;;;;8.57;3.30;;;;;;;20.59;100.00;98672.81;5032903;28;20233;-80
2022/08/19 04:03:26;;;;;;;7.00;3.30;;;;;;;20.56;100.00;98669.91;5032445;28;20236;-81
2022/08/19 04:05:53;;;;;;;9.20;3.33;;;;;;;20.60;100.00;98670.91;5029740;28;20264;-80
2022/08/19 04:08:22;;;;;;;7.43;2.80;;;;;;;20.69;100.00;98676.41;5044734;28;20743;-79
2022/08/19 04:10:49;;;;;;;7.55;3.13;;;;;;;20.73;100.00;98678.22;5036491;28;20300;-79
2022/08/19 04:13:17;;;;;;;5.53;3.10;;;;;;;20.78;100.00;98685.44;5040710;28;20279;-79
2022/08/19 04:15:46;;;;;;;8.00;3.37;;;;;;;20.86;100.00;98677.34;5037600;28;20235;-80
2022/08/19 04:18:13;;;;;;;7.60;2.67;;;;;;;20.95;100.00;98685.59;5032928;28;20702;-81
2022/08/19 04:20:45;;;;;;;7.85;3.20;;;;;;;21.06;100.00;98684.22;5032325;28;20759;-80
2022/08/19 04:23:13;;;;;;;10.35;3.15;;;;;;;21.20;100.00;98681.44;5033693;28;20782;-81
2022/08/19 04:25:42;;;;;;;7.87;3.40;;;;;;;21.30;100.00;98679.25;5027799;28;20242;-81
2022/08/19 04:28:11;;;;;;;7.30;3.85;;;;;;;21.43;100.00;98691.97;5027775;28;20278;-78
2022/08/19 04:30:47;;;;;;;10.45;3.75;;;;;;;21.57;100.00;98680.19;5028207;28;20268;-79
2022/08/19 04:33:16;;;;;;;11.10;3.80;;;;;;;21.70;100.00;98701.06;5030164;28;20222;-79
2022/08/19 04:35:52;;;;;;;9.40;3.78;;;;;;;21.84;100.00;98701.78;5032010;28;20226;-79
2022/08/19 04:38:22;;;;;;;6.90;3.10;;;;;;;21.92;100.00;98706.47;5029084;28;20230;-79
2022/08/19 04:43:37;;;;;;;8.43;3.10;;;;;;;22.19;98.70;98703.53;5026673;28;20652;-81
2022/08/19 04:46:11;;;;;;;7.43;3.10;;;;;;;22.21;97.63;98704.00;5053504;28;20257;-81
2022/08/19 04:48:59;;;;;;;7.78;3.20;;;;;;;22.34;98.62;98714.00;5041693;28;20276;-80
2022/08/19 04:51:36;;;;;;;8.82;2.97;;;;;;;22.43;95.15;98715.94;5045475;28;20264;-80
2022/08/19 04:54:03;;;;;;;5.07;2.92;;;;;;;22.49;91.64;98717.38;5035970;28;20236;-80
2022/08/19 04:56:30;;;;;;;8.25;3.38;;;;;;;22.46;90.95;98712.53;5030947;28;20239;-79
2022/08/19 04:58:57;;;;;;;7.20;3.20;;;;;;;22.53;89.50;98716.44;5034465;28;20305;-80
2022/08/19 05:01:28;;;;;;;7.75;3.20;;;;;;;22.58;89.09;98719.00;5047592;28;20322;-83
2022/08/19 05:03:56;;;;;;;8.07;3.10;;;;;;;22.54;90.77;98711.75;5020079;28;20241;-82
2022/08/19 05:06:23;;;;;;;7.43;3.20;;;;;;;22.52;96.70;98720.28;5028105;28;20722;-82
2022/08/19 05:08:50;;;;;;;6.20;3.10;;;;;;;22.58;96.92;98716.28;5022038;28;20241;-81
2022/08/19 05:11:25;;;;;;;9.32;3.38;;;;;;;22.65;93.57;98730.22;5030349;28;20238;-85
2022/08/19 05:13:52;;;;;;;7.20;3.30;;;;;;;22.66;97.45;98723.66;5010070;28;20302;-83
2022/08/19 05:16:20;;;;;;;8.30;3.35;;;;;;;22.71;100.00;98729.00;5032300;28;20276;-81
2022/08/19 05:24:20;;;;;;;9.50;3.45;;;;;;;22.73;100.00;98748.56;5045682;28;20235;-81
2022/08/19 05:26:48;;;;;;;10.05;3.45;;;;;;;22.66;100.00;98756.41;5047644;28;20249;-84
2022/08/19 05:29:18;;;;;;;10.30;3.53;;;;;;;22.69;100.00;98769.41;5048605;28;21672;-81
2022/08/19 05:31:51;;;;;;;9.23;3.50;;;;;;;22.72;100.00;98781.69;5046711;28;20225;-82
2022/08/19 05:34:21;;;;;;;13.43;3.70;;;;;;;22.74;100.00;98782.94;5046362;28;20243;-81
2022/08/19 05:36:50;;;;;;;10.52;4.07;;;;;;;22.61;100.00;98766.69;5063571;28;20227;-79
2022/08/19 05:39:19;;;;;;;11.57;3.72;;;;;;;22.76;100.00;98774.44;5047701;28;20230;-81
2022/08/19 05:41:49;;;;;;;7.28;3.30;;;;;;;22.91;100.00;98779.41;5047569;28;20635;-79
2022/08/19 05:44:16;;;;;;;10.98;4.10;;;;;;;23.04;100.00;98785.88;5040249;28;20318;-79
2022/08/19 05:46:46;;;;;;;12.63;3.78;;;;;;;23.25;100.00;98786.81;5040697;28;20253;-79
2022/08/19 05:49:15;;;;;;;13.25;4.35;;;;;;;23.47;100.00;98792.13;5038447;28;20227;-81
2022/08/19 05:51:42;;;;;;;10.60;3.80;;;;;;;23.65;100.00;98803.84;5044113;28;20286;-81
2022/08/19 05:54:11;;;;;;;9.10;3.38;;;;;;;23.92;100.00;98813.59;5042578;28;20228;-81
2022/08/19 05:56:37;;;;;;;7.75;3.58;;;;;;;24.11;100.00;98820.28;5044343;28;20565;-80
2022/08/19 05:59:08;;;;;;;8.77;4.03;;;;;;;24.27;100.00;98827.94;5043484;28;20703;-82
2022/08/19 06:01:37;;;;;;;8.02;3.90;;;;;;;24.42;100.00;98830.16;5055741;28;20318;-81
2022/08/19 06:04:04;;;;;;;13.45;4.10;;;;;;;24.54;100.00;98835.75;5041959;28;20228;-81
2022/08/19 06:06:33;;;;;;;9.65;4.10;;;;;;;24.65;100.00;98838.88;5041931;28;20759;-81
2022/08/19 06:09:02;;;;;;;13.68;3.90;;;;;;;24.72;99.63;98839.19;5043374;28;20247;-80
2022/08/19 06:11:53;;;;;;;12.52;4.03;;;;;;;24.83;98.83;98849.41;5040796;28;20253;-81
2022/08/19 06:14:27;;;;;;;12.15;3.95;;;;;;;24.94;97.06;98842.44;5040383;28;20227;-81
2022/08/19 06:16:54;;;;;;;13.18;4.07;;;;;;;25.10;94.03;98845.41;5039489;28;20239;-81
2022/08/19 06:19:22;;;;;;;8.68;3.95;;;;;;;25.25;90.50;98843.97;5050050;28;20236;-82
2022/08/19 06:21:50;;;;;;;13.80;4.43;;;;;;;25.37;88.54;98844.84;5032730;28;20229;-81
2022/08/19 06:24:25;;;;;;;11.43;4.32;;;;;;;25.39;82.94;98850.78;5033791;28;20288;-81
2022/08/19 06:26:53;;;;;;;10.43;4.47;;;;;;;25.57;80.67;98847.94;5030042;28;20595;-81
2022/08/19 06:29:27;;;;;;;7.18;4.40;;;;;;;25.68;80.53;98852.66;5024458;28;20224;-81
2022/08/19 06:31:56;;;;;;;10.52;4.82;;;;;;;25.82;80.04;98855.91;5031666;28;20279;-81
2022/08/19 06:34:24;;;;;;;9.43;4.57;;;;;;;26.00;77.85;98863.94;5032226;28;20647;-79
2022/08/19 06:36:51;;;;;;;8.60;4.70;;;;;;;26.15;76.60;98861.38;5027341;28;20229;-79
2022/08/19 06:39:24;;;;;;;9.98;4.50;;;;;;;26.46;76.20;98869.09;5035236;28;20248;-79
2022/08/19 06:41:54;;;;;;;9.43;4.32;;;;;;;26.69;74.87;98852.94;5035282;28;20243;-79
2022/08/19 06:44:28;;;;;;;10.88;4.90;;;;;;;26.71;71.88;98836.94;5034639;28;20897;-80
2022/08/19 06:46:57;;;;;;;8.55;4.30;;;;;;;27.08;70.45;98851.44;5029755;28;20316;-79
2022/08/19 06:49:30;;;;;;;8.85;4.85;;;;;;;27.37;67.93;98853.88;5035312;28;20236;-79
2022/08/19 06:51:58;;;;;;;6.88;4.65;;;;;;;27.65;64.43;98845.66;5034934;28;20771;-80
2022/08/19 06:54:29;;;;;;;7.30;4.68;;;;;;;27.62;62.33;98851.88;5033662;28;20257;-81
2022/08/19 06:56:58;;;;;;;10.02;4.43;;;;;;;27.82;61.96;98844.53;5030764;28;20716;-81
2022/08/19 06:59:28;;;;;;;8.77;4.10;;;;;;;27.87;60.31;98853.34;5031712;28;20317;-81
2022/08/19 07:01:56;;;;;;;6.57;4.10;;;;;;;28.05;59.53;98853.81;5036686;28;20712;-79
2022/08/19 07:04:27;;;;;;;8.23;4.07;;;;;;;28.25;59.88;98855.56;5042819;28;20316;-82
2022/08/19 07:07:09;;;;;;;7.88;4.20;;;;;;;28.34;58.36;98838.84;5040034;28;20221;-81
2022/08/19 07:09:48;;;;;;;7.88;4.30;;;;;;;28.37;57.98;98827.13;5049333;28;20227;-81
2022/08/19 07:12:27;;;;;;;8.30;4.80;;;;;;;28.65;56.55;98816.78;5041689;28;20579;-79
2022/08/19 07:14:57;;;;;;;10.15;4.32;;;;;;;28.83;56.08;98823.53;5037946;28;20774;-83
2022/08/19 07:17:24;;;;;;;7.78;4.22;;;;;;;28.99;54.96;98817.16;5021475;28;20233;-83
2022/08/19 07:19:51;;;;;;;6.20;4.45;;;;;;;29.11;54.65;98804.06;5026195;28;20321;-82
2022/08/19 07:22:22;;;;;;;9.35;4.80;;;;;;;29.35;54.48;98791.94;5038290;28;20225;-83
2022/08/19 07:24:51;;;;;;;6.45;4.63;;;;;;;29.37;53.67;98811.72;5031539;28;20226;-83
2022/08/19 07:27:18;;;;;;;8.68;4.20;;;;;;;29.69;52.73;98812.34;5029004;28;20249;-83
2022/08/19 07:29:50;;;;;;;7.63;4.60;;;;;;;30.05;51.55;98809.06;5036398;28;20714;-80
2022/08/19 07:32:26;;;;;;;5.97;4.25;;;;;;;30.42;49.12;98803.75;5031034;28;20226;-81
2022/08/19 07:34:52;;;;;;;9.20;4.63;;;;;;;30.43;48.52;98783.25;5034225;28;20221;-82
2022/08/19 07:37:19;;;;;;;11.32;4.90;;;;;;;30.46;48.48;98771.50;5065569;28;20245;-82
2022/08/19 07:39:46;;;;;;;5.57;4.47;;;;;;;30.42;47.68;98764.31;5036823;28;20344;-83
2022/08/19 07:42:13;;;;;;;7.38;4.80;;;;;;;30.28;47.34;98764.88;5034302;28;20317;-82
2022/08/19 07:44:41;;;;;;;7.13;4.78;;;;;;;30.70;46.62;98762.00;5034733;28;20239;-81
2022/08/19 07:47:17;;;;;;;6.47;4.68;;;;;;;30.85;46.20;98757.44;5032726;28;20237;-82
2022/08/19 07:50:07;;;;;;;8.38;4.63;;;;;;;30.86;46.44;98750.72;5027043;28;20227;-83
2022/08/19 07:52:35;;;;;;;8.00;4.68;;;;;;;30.94;46.26;98758.75;5033472;28;20225;-81
2022/08/19 07:55:03;;;;;;;8.05;4.85;;;;;;;30.99;45.84;98757.59;5031502;28;20783;-81
2022/08/19 07:57:30;;;;;;;7.57;4.68;;;;;;;30.98;45.42;98767.09;5018778;28;20689;-83
2022/08/19 07:59:57;;;;;;;9.90;4.95;;;;;;;31.09;45.11;98772.78;5027505;28;20231;-83
2022/08/19 08:02:24;;;;;;;7.80;4.60;;;;;;;31.09;45.19;98773.59;5027394;28;20236;-81
2022/08/19 08:10:20;;;;;;;8.70;5.00;;;;;;;30.87;45.46;98774.44;5026471;28;20380;-81
2022/08/19 08:12:50;;;;;;;7.55;4.97;;;;;;;30.52;46.32;98783.03;5023686;28;20226;-81
2022/08/19 08:15:38;;;;;;;8.85;5.15;;;;;;;30.68;47.13;98803.03;5025163;28;20297;-81
2022/08/19 08:18:09;;;;;;;9.23;4.60;;;;;;;30.78;47.31;98799.63;5027555;28;20234;-83
2022/08/19 08:20:36;;;;;;;10.18;4.80;;;;;;;30.93;46.11;98812.47;5028529;28;20226;-83
2022/08/19 08:25:49;;;;;;;8.35;4.72;;;;;;;31.79;44.15;98819.88;5043489;28;20230;-80
2022/08/19 08:28:17;;;;;;;10.65;4.93;;;;;;;32.05;43.36;98830.06;5004958;28;20715;-86
2022/08/19 08:30:45;;;;;;;9.55;4.75;;;;;;;32.33;42.77;98824.81;5007129;28;20234;-80
2022/08/19 08:33:14;;;;;;;7.60;4.80;;;;;;;32.45;42.10;98834.78;5026359;28;20238;-80
2022/08/19 08:35:45;;;;;;;9.10;4.70;;;;;;;32.63;41.02;98833.75;5022814;28;20386;-80
2022/08/19 08:38:12;;;;;;;9.82;4.78;;;;;;;32.79;40.79;98836.25;5024016;28;20777;-80
2022/08/19 08:40:44;;;;;;;7.22;4.75;;;;;;;32.95;40.00;98835.94;5011051;28;20253;-82
2022/08/19 08:43:31;;;;;;;5.47;4.55;;;;;;;33.09;39.79;98833.25;5023334;28;20238;-80
2022/08/19 08:46:05;;;;;;;6.30;4.30;;;;;;;33.34;39.39;98839.75;5008272;28;20644;-79
2022/08/19 08:48:46;;;;;;;7.30;4.47;;;;;;;33.49;39.07;98835.06;5024560;28;21102;-82
2022/08/19 08:51:29;;;;;;;10.27;4.50;;;;;;;33.80;38.01;98831.63;5023837;28;20292;-80
2022/08/19 08:54:06;;;;;;;7.68;4.70;;;;;;;33.79;38.52;98832.78;5006945;28;20230;-79
2022/08/19 08:56:38;;;;;;;7.85;4.35;;;;;;;33.71;38.60;98833.97;5050173;28;20230;-80
2022/08/19 08:59:26;;;;;;;7.65;4.82;;;;;;;33.67;38.21;98824.84;5029890;28;20254;-81
2022/08/19 09:01:53;;;;;;;6.35;4.70;;;;;;;34.24;37.13;98817.44;5049714;28;20233;-80
2022/08/19 09:04:20;;;;;;;7.05;4.35;;;;;;;34.42;36.73;98803.50;5043697;28;20268;-80
2022/08/19 09:07:10;;;;;;;6.80;4.32;;;;;;;34.26;37.18;98792.78;5051643;28;20233;-80
2022/08/19 09:10:07;;;;;;;6.90;5.07;;;;;;;34.02;37.55;98794.34;5048539;28;20792;-82
2022/08/19 09:13:00;;;;;;;7.75;4.90;;;;;;;33.69;38.06;98791.91;5045827;28;20256;-82
2022/08/19 09:15:39;;;;;;;6.50;4.72;;;;;;;33.48;38.39;98778.72;5035040;28;20643;-82
2022/08/19 09:18:06;;;;;;;6.50;4.32;;;;;;;33.79;38.91;98776.44;5049749;28;20229;-82
2022/08/19 09:20:33;;;;;;;8.30;4.68;;;;;;;33.57;37.99;98762.50;5025874;28;20313;-79
2022/08/19 09:22:59;;;;;;;5.25;4.45;;;;;;;33.42;37.91;98752.53;5048861;28;20230;-79
2022/08/19 09:25:26;;;;;;;7.78;4.75;;;;;;;33.13;38.94;98754.38;5035353;28;20217;-79
2022/08/19 09:28:02;;;;;;;7.72;4.57;;;;;;;33.17;38.80;98760.81;5038546;28;20237;-81
2022/08/19 09:30:34;;;;;;;7.35;4.50;;;;;;;33.11;37.67;98770.66;5030891;28;20256;-82
2022/08/19 09:33:01;;;;;;;6.15;4.47;;;;;;;32.94;37.87;98767.78;5031325;28;20229;-79
2022/08/19 09:35:29;;;;;;;7.18;3.85;;;;;;;32.87;38.10;98781.63;5042937;28;20223;-80
2022/08/19 09:37:57;;;;;;;6.25;4.30;;;;;;;32.95;37.98;98778.47;5029564;28;20390;-79
2022/08/19 09:40:28;;;;;;;6.18;3.95;;;;;;;32.94;38.06;98785.25;5039571;28;20309;-79
2022/08/19 09:42:57;;;;;;;5.10;4.28;;;;;;;32.69;37.51;98787.06;5034245;28;20691;-78
2022/08/19 09:45:24;;;;;;;7.40;4.57;;;;;;;32.73;38.59;98782.34;5036253;28;20239;-81
2022/08/19 09:47:52;;;;;;;5.97;4.47;;;;;;;32.90;37.96;98783.59;5036792;28;20324;-79
2022/08/19 09:50:21;;;;;;;7.35;4.18;;;;;;;33.07;37.92;98771.81;5037284;28;20592;-79
2022/08/19 09:52:47;;;;;;;7.55;4.65;;;;;;;33.42;37.41;98773.94;5026042;28;20313;-82
2022/08/19 09:55:24;;;;;;;9.48;4.80;;;;;;;33.84;37.02;98771.28;5030151;28;20246;-79
2022/08/19 09:57:56;;;;;;;7.55;4.35;;;;;;;34.31;36.36;98770.16;5033572;28;20226;-81
2022/08/19 10:00:23;;;;;;;5.97;4.60;;;;;;;34.63;34.77;98767.31;5025519;28;20934;-79
2022/08/19 10:02:50;;;;;;;8.45;4.55;;;;;;;34.72;34.03;98762.16;5036753;28;20696;-79
2022/08/19 10:08:08;;;;;;;6.53;4.15;;;;;;;35.31;33.26;98763.19;5034043;28;20264;-79
2022/08/19 10:10:43;;;;;;;8.75;4.72;;;;;;;34.94;33.71;98759.34;5048222;28;20217;-82
2022/08/19 10:13:14;;;;;;;6.53;4.07;;;;;;;34.91;33.63;98766.47;5038198;28;20285;-81
2022/08/19 10:15:40;;;;;;;4.50;3.67;;;;;;;34.40;34.42;98773.31;5030597;28;20313;-80
2022/08/19 10:18:17;;;;;;;9.70;4.35;;;;;;;33.95;36.51;98794.34;5034559;28;20245;-80
2022/08/19 10:20:46;;;;;;;5.57;4.70;;;;;;;33.68;37.45;98803.41;5034131;28;20268;-80
2022/08/19 10:23:19;;;;;;;7.15;4.28;;;;;;;33.41;38.57;98814.03;5043996;28;20231;-80
2022/08/19 10:25:47;;;;;;;7.63;4.00;;;;;;;33.12;39.29;98835.28;5027600;28;20225;-79
2022/08/19 10:28:14;;;;;;;5.82;4.35;;;;;;;32.75;39.99;98843.78;5070806;28;20233;-80
2022/08/19 10:30:41;;;;;;;8.43;4.63;;;;;;;32.44;40.33;98836.75;5056133;28;20775;-81
2022/08/19 10:33:09;;;;;;;6.50;4.28;;;;;;;32.11;41.86;98815.50;5038169;28;20232;-79
2022/08/19 10:35:37;;;;;;;6.85;4.50;;;;;;;32.01;43.22;98807.06;5037416;28;20321;-81
2022/08/19 10:38:22;;;;;;;10.00;4.55;;;;;;;32.05;43.86;98794.84;5041345;28;20308;-80
2022/08/19 10:40:58;;;;;;;7.50;4.20;;;;;;;32.17;43.18;98802.88;5037442;28;20233;-79
2022/08/19 10:43:24;;;;;;;8.18;4.28;;;;;;;32.09;42.20;98812.28;5037658;28;20730;-78
2022/08/19 10:45:55;;;;;;;9.63;4.38;;;;;;;31.74;42.71;98832.09;5033032;28;20317;-78
2022/08/19 10:48:21;;;;;;;8.90;4.20;;;;;;;31.34;43.52;98843.88;5052502;28;20238;-78
2022/08/19 10:53:33;;;;;;;27.08;6.40;;;;;;;30.43;48.75;98807.31;5038695;28;20287;-81
2022/08/19 10:58:46;;;;;;;9.35;3.50;;;;;;;29.43;50.53;98795.66;5038020;28;20245;-78
2022/08/19 11:01:13;;;;;;;10.60;3.67;;;;;;;28.77;54.46;98789.13;5027246;28;20872;-79
2022/08/19 11:03:40;;;;;;;11.25;3.45;;;;;;;28.63;56.97;98799.81;5029564;28;20265;-79
2022/08/19 11:06:07;;;;;;;7.97;3.53;;;;;;;28.53;57.47;98808.63;5036855;28;20222;-79
2022/08/19 11:08:37;;;;;;;9.80;3.60;;;;;;;28.71;54.68;98806.31;5034181;28;20230;-79
2022/08/19 11:11:05;;;;;;;9.93;3.78;;;;;;;29.15;54.38;98799.41;5031415;28;20226;-81
2022/08/19 11:13:36;;;;;;;9.05;3.92;;;;;;;29.85;51.18;98793.72;5032843;28;20309;-78
2022/08/19 11:16:10;;;;;;;10.32;3.83;;;;;;;30.61;48.43;98789.09;5034631;28;20230;-80
2022/08/19 11:18:40;;;;;;;8.77;3.83;;;;;;;31.40;46.23;98789.75;5035238;28;20317;-80
2022/08/19 11:21:21;;;;;;;10.65;4.05;;;;;;;31.82;44.52;98783.91;5038130;28;20229;-79
2022/08/19 11:23:50;;;;;;;10.23;4.38;;;;;;;32.23;42.59;98781.16;5031801;28;20242;-80
2022/08/19 11:26:18;;;;;;;10.55;4.32;;;;;;;32.50;41.66;98779.78;5027001;28;20236;-79
2022/08/19 11:28:45;;;;;;;10.55;3.75;;;;;;;32.54;42.81;98779.78;5021739;28;20230;-79
2022/08/19 11:31:15;;;;;;;9.48;4.50;;;;;;;32.42;42.37;98780.13;5028279;28;20772;-79
2022/08/19 11:33:41;;;;;;;13.77;4.47;;;;;;;32.56;41.67;98772.69;5025253;28;20241;-79
2022/08/19 11:36:13;;;;;;;11.48;4.18;;;;;;;33.09;40.01;98770.22;5018162;28;20301;-80
2022/08/19 11:38:41;;;;;;;12.45;4.05;;;;;;;33.30;39.74;98766.78;5028083;28;20252;-79
2022/08/19 11:41:07;;;;;;;12.40;4.45;;;;;;;33.33;39.81;98752.09;5021380;28;20235;-78
2022/08/19 11:43:35;;;;;;;12.27;4.90;;;;;;;33.40;39.41;98740.25;5031229;28;20229;-79
2022/08/19 11:46:11;;;;;;;9.43;4.20;;;;;;;33.11;39.69;98750.41;5018640;28;20238;-78
2022/08/19 11:48:38;;;;;;;9.07;4.05;;;;;;;32.94;40.53;98753.94;5016466;28;20281;-81
2022/08/19 11:51:08;;;;;;;10.02;4.10;;;;;;;33.12;40.30;98752.03;5015138;28;20227;-80
2022/08/19 11:53:35;;;;;;;8.20;4.15;;;;;;;33.27;39.98;98747.34;5024896;28;20735;-78
2022/08/19 11:56:03;;;;;;;11.57;4.63;;;;;;;33.22;40.30;98756.84;5024036;28;20279;-78
2022/08/19 11:58:30;;;;;;;10.25;4.60;;;;;;;33.07;40.45;98755.97;5036411;28;20272;-78
2022/08/19 12:00:57;;;;;;;10.80;4.75;;;;;;;33.10;41.23;98743.28;5020276;28;20238;-79
2022/08/19 12:03:23;;;;;;;9.38;4.55;;;;;;;33.25;41.56;98753.28;5027844;28;20230;-79
2022/08/19 12:05:50;;;;;;;10.77;4.63;;;;;;;33.69;40.95;98755.03;5025492;28;20240;-79
2022/08/19 12:08:17;;;;;;;8.55;4.65;;;;;;;34.35;39.82;98768.16;5019946;28;20243;-78